Time;durP1;ratioP1;P1;durP2;ratioP2;P2;SDS_P1;SDS_P2;PMS_P1;PMS_P2;Temp;Humidity;BMP_temperature;BMP_pressure;BME280_temperature;BME280_humidity;BME280_pressure;Samples;Min_cycle;Max_cycle;Signal;HPM_P1;HPM_P2
2022/11/26 00:01:30;;;;;;;6.10;2.17;;;;;;;;;;10511861;28;20045;-75
2022/11/26 00:06:36;;;;;;;6.63;2.63;;;;;;;;;;10512283;28;20036;-76
2022/11/26 00:11:39;;;;;;;;;;;;;;;;;;10516660;28;20052;-72
2022/11/26 00:16:43;;;;;;;4.13;2.38;;;;;;;;;;10506676;28;20293;-74
2022/11/26 00:21:45;;;;;;;3.80;1.52;;;;;;;;;;10511574;28;20067;-75
2022/11/26 00:26:48;;;;;;;7.63;2.35;;;;;;;;;;10505353;28;20409;-76
2022/11/26 00:31:52;;;;;;;14.23;3.75;;;;;;;;;;10504749;28;20786;-76
2022/11/26 00:36:54;;;;;;;11.25;4.10;;;;;;;;;;10504793;28;20044;-75
2022/11/26 00:41:57;;;;;;;3.72;1.90;;;;;;;;;;10513269;28;20107;-75
2022/11/26 00:47:01;;;;;;;7.82;3.05;;;;;;;;;;10519200;28;20100;-75
2022/11/26 00:52:20;;;;;;;8.05;3.17;;;;;;;;;;10511537;28;20033;-74
2022/11/26 00:57:26;;;;;;;4.75;1.88;;;;;;;;;;10511513;28;20047;-74
2022/11/26 01:02:30;;;;;;;1.02;0.98;;;;;;;;;;10515709;28;20093;-74
2022/11/26 01:07:33;;;;;;;;;;;;;;;;;;10506354;28;20310;-75
2022/11/26 01:12:36;;;;;;;8.65;3.15;;;;;;;;;;10516090;28;20307;-74
2022/11/26 01:17:40;;;;;;;6.80;2.38;;;;;;;;;;10515193;28;20071;-75
2022/11/26 01:22:42;;;;;;;3.38;1.08;;;;;;;;;;10518794;28;20098;-74
2022/11/26 01:27:45;;;;;;;7.03;2.20;;;;;;;;;;10516831;28;20035;-74
2022/11/26 01:32:50;;;;;;;6.05;2.80;;;;;;;;;;10514801;28;20163;-73
2022/11/26 01:37:53;;;;;;;4.65;2.20;;;;;;;;;;10510416;28;20048;-74
2022/11/26 01:42:58;;;;;;;2.15;1.35;;;;;;;;;;10508465;28;20028;-75
2022/11/26 01:48:02;;;;;;;8.27;1.95;;;;;;;;;;10514225;28;20101;-74
2022/11/26 01:53:09;;;;;;;5.18;2.10;;;;;;;;;;10521729;28;20105;-74
2022/11/26 01:58:15;;;;;;;6.22;1.98;;;;;;;;;;10519669;28;20070;-75
2022/11/26 02:03:19;;;;;;;4.38;2.50;;;;;;;;;;10514568;28;20101;-75
2022/11/26 02:08:22;;;;;;;4.53;1.83;;;;;;;;;;10507616;28;20483;-76
2022/11/26 02:13:26;;;;;;;7.75;2.25;;;;;;;;;;10512011;28;20090;-75
2022/11/26 02:18:32;;;;;;;6.83;1.50;;;;;;;;;;10502502;28;20045;-75
2022/11/26 02:23:42;;;;;;;8.68;2.55;;;;;;;;;;10518708;28;20606;-75
2022/11/26 02:29:03;;;;;;;2.85;1.50;;;;;;;;;;10491801;28;20114;-75
2022/11/26 02:34:09;;;;;;;8.05;2.55;;;;;;;;;;10520049;28;20028;-74
2022/11/26 02:39:13;;;;;;;6.32;2.53;;;;;;;;;;10521909;28;20093;-75
2022/11/26 02:44:17;;;;;;;1.98;0.60;;;;;;;;;;10516050;28;20422;-75
2022/11/26 02:49:31;;;;;;;2.45;1.52;;;;;;;;;;10512104;28;20037;-75
2022/11/26 02:54:34;;;;;;;4.88;1.80;;;;;;;;;;10501326;28;20116;-75
2022/11/26 02:59:38;;;;;;;7.03;2.72;;;;;;;;;;10516137;28;20186;-75
2022/11/26 03:04:44;;;;;;;3.75;1.40;;;;;;;;;;10509902;28;20056;-75
2022/11/26 03:09:49;;;;;;;5.50;2.28;;;;;;;;;;10501110;28;20138;-75
2022/11/26 03:14:52;;;;;;;5.55;2.00;;;;;;;;;;10505464;28;20040;-74
2022/11/26 03:19:56;;;;;;;5.82;2.45;;;;;;;;;;10516014;28;20047;-75
2022/11/26 03:24:59;;;;;;;5.65;2.38;;;;;;;;;;10503484;28;20047;-76
2022/11/26 03:30:02;;;;;;;7.10;2.45;;;;;;;;;;10521438;28;20054;-75
2022/11/26 03:35:06;;;;;;;3.05;1.67;;;;;;;;;;10505358;28;20122;-76
2022/11/26 03:40:10;;;;;;;7.88;2.72;;;;;;;;;;10515669;28;20040;-76
2022/11/26 03:45:12;;;;;;;5.37;2.60;;;;;;;;;;10491251;28;20136;-76
2022/11/26 03:50:16;;;;;;;10.90;3.30;;;;;;;;;;10512267;28;20504;-76
2022/11/26 03:55:19;;;;;;;4.40;2.15;;;;;;;;;;10511131;28;20028;-75
2022/11/26 04:00:21;;;;;;;7.45;2.88;;;;;;;;;;10510384;28;20032;-75
2022/11/26 04:05:25;;;;;;;8.93;3.05;;;;;;;;;;10508244;28;20760;-75
2022/11/26 04:10:29;;;;;;;8.88;3.00;;;;;;;;;;10523908;28;20094;-75
2022/11/26 04:15:31;;;;;;;7.28;2.80;;;;;;;;;;10514023;28;20630;-75
2022/11/26 04:20:35;;;;;;;8.48;2.30;;;;;;;;;;10505604;28;20052;-74
2022/11/26 04:25:38;;;;;;;8.93;1.63;;;;;;;;;;10504947;28;20461;-74
2022/11/26 04:30:41;;;;;;;7.57;3.03;;;;;;;;;;10507848;28;20460;-74
2022/11/26 04:35:44;;;;;;;6.30;2.20;;;;;;;;;;10513923;28;20461;-74
2022/11/26 04:40:47;;;;;;;7.03;2.80;;;;;;;;;;10521113;28;20160;-74
2022/11/26 04:45:50;;;;;;;6.65;3.05;;;;;;;;;;10515660;28;20417;-75
2022/11/26 04:50:54;;;;;;;1.92;1.17;;;;;;;;;;10526137;28;20481;-75
2022/11/26 04:55:56;;;;;;;6.45;2.05;;;;;;;;;;10527900;28;20035;-74
2022/11/26 05:00:59;;;;;;;5.43;2.25;;;;;;;;;;10514887;28;20149;-75
2022/11/26 05:06:03;;;;;;;8.63;2.92;;;;;;;;;;10518150;28;20044;-74
2022/11/26 05:11:06;;;;;;;7.32;2.97;;;;;;;;;;10510417;28;20109;-74
2022/11/26 05:16:09;;;;;;;7.50;2.88;;;;;;;;;;10510969;28;20044;-74
2022/11/26 05:21:13;;;;;;;9.60;3.03;;;;;;;;;;10523946;28;20116;-74
2022/11/26 05:26:16;;;;;;;9.20;3.20;;;;;;;;;;10522592;28;20127;-75
2022/11/26 05:31:19;;;;;;;6.32;2.42;;;;;;;;;;10517253;28;20442;-76
2022/11/26 05:36:23;;;;;;;10.00;3.88;;;;;;;;;;10517599;28;20482;-75
2022/11/26 05:41:26;;;;;;;9.57;3.40;;;;;;;;;;10516555;28;20188;-76
2022/11/26 05:46:28;;;;;;;13.27;3.65;;;;;;;;;;10519626;28;20048;-75
2022/11/26 05:51:33;;;;;;;8.48;2.97;;;;;;;;;;10530003;28;20112;-75
2022/11/26 05:56:35;;;;;;;;;;;;;;;;;;10506135;28;20055;-75
2022/11/26 06:01:38;;;;;;;6.47;2.88;;;;;;;;;;10517738;28;19928;-75
2022/11/26 06:06:42;;;;;;;7.20;3.15;;;;;;;;;;10498345;28;20138;-76
2022/11/26 06:11:45;;;;;;;6.22;3.00;;;;;;;;;;10517998;28;20035;-75
2022/11/26 06:16:47;;;;;;;6.35;2.78;;;;;;;;;;10512251;28;20496;-75
2022/11/26 06:21:51;;;;;;;8.68;2.65;;;;;;;;;;10520406;28;20500;-76
2022/11/26 06:26:54;;;;;;;5.60;2.45;;;;;;;;;;10517754;28;20036;-75
2022/11/26 06:31:58;;;;;;;8.48;2.67;;;;;;;;;;10526831;28;20094;-75
2022/11/26 06:37:01;;;;;;;10.20;3.90;;;;;;;;;;10512918;28;20123;-75
2022/11/26 06:42:04;;;;;;;7.40;2.75;;;;;;;;;;10518622;28;20043;-74
2022/11/26 06:47:09;;;;;;;8.73;4.13;;;;;;;;;;10513216;28;20040;-76
2022/11/26 06:52:22;;;;;;;8.25;3.47;;;;;;;;;;10514356;28;20043;-76
2022/11/26 06:57:25;;;;;;;9.18;2.75;;;;;;;;;;10518809;28;20036;-74
2022/11/26 07:02:28;;;;;;;6.40;2.67;;;;;;;;;;10515239;28;20412;-75
2022/11/26 07:07:35;;;;;;;11.90;3.78;;;;;;;;;;10506476;28;20044;-75
2022/11/26 07:12:38;;;;;;;8.65;3.63;;;;;;;;;;10507567;28;20040;-76
2022/11/26 07:17:41;;;;;;;8.93;2.97;;;;;;;;;;10512553;28;20116;-76
2022/11/26 07:22:48;;;;;;;9.77;3.40;;;;;;;;;;10506007;28;20058;-75
2022/11/26 07:27:53;;;;;;;7.32;2.60;;;;;;;;;;10491156;28;20051;-75
2022/11/26 07:32:56;;;;;;;6.10;2.50;;;;;;;;;;10516211;28;20132;-75
2022/11/26 07:38:00;;;;;;;5.50;2.35;;;;;;;;;;10510772;28;20076;-75
2022/11/26 07:43:04;;;;;;;7.90;2.45;;;;;;;;;;10511444;28;20550;-76
2022/11/26 07:48:07;;;;;;;5.57;2.30;;;;;;;;;;10510634;28;20043;-75
2022/11/26 07:53:23;;;;;;;3.88;1.55;;;;;;;;;;10515457;28;20085;-74
2022/11/26 07:58:26;;;;;;;3.65;1.20;;;;;;;;;;10517079;28;20036;-75
2022/11/26 08:03:28;;;;;;;6.18;1.70;;;;;;;;;;10508734;28;20097;-78
2022/11/26 08:08:32;;;;;;;3.72;1.05;;;;;;;;;;10526224;28;20069;-77
2022/11/26 08:13:35;;;;;;;;;;;;;;;;;;10530281;28;20036;-76
2022/11/26 08:18:38;;;;;;;1.20;0.73;;;;;;;;;;10526332;28;20380;-75
2022/11/26 08:23:46;;;;;;;1.05;0.47;;;;;;;;;;10521350;28;20056;-76
2022/11/26 08:28:52;;;;;;;1.13;0.77;;;;;;;;;;10522724;28;20044;-76
2022/11/26 08:33:54;;;;;;;;;;;;;;;;;;10513217;28;20515;-75
2022/11/26 08:38:59;;;;;;;4.38;1.10;;;;;;;;;;10521507;28;19978;-76
2022/11/26 08:44:02;;;;;;;3.35;1.40;;;;;;;;;;10516495;28;20039;-76
2022/11/26 08:49:10;;;;;;;4.10;1.60;;;;;;;;;;10521875;28;20125;-75
2022/11/26 08:54:20;;;;;;;4.60;1.55;;;;;;;;;;10516652;28;20504;-75
2022/11/26 08:59:26;;;;;;;3.72;1.73;;;;;;;;;;10513974;28;20051;-75
2022/11/26 09:04:33;;;;;;;6.18;1.25;;;;;;;;;;10526898;28;20044;-75
2022/11/26 09:09:45;;;;;;;3.40;1.87;;;;;;;;;;10501809;28;20472;-76
2022/11/26 09:14:50;;;;;;;5.72;2.20;;;;;;;;;;10497485;28;20032;-74
2022/11/26 09:19:52;;;;;;;2.60;1.08;;;;;;;;;;10519670;28;20043;-75
2022/11/26 09:24:57;;;;;;;4.15;2.10;;;;;;;;;;10519409;28;20085;-74
2022/11/26 09:30:00;;;;;;;4.85;2.35;;;;;;;;;;10524013;28;20056;-74
2022/11/26 09:35:03;;;;;;;5.93;2.38;;;;;;;;;;10514180;28;20036;-75
2022/11/26 09:40:19;;;;;;;6.20;2.30;;;;;;;;;;10520488;28;20309;-75
2022/11/26 09:45:31;;;;;;;5.07;1.90;;;;;;;;;;10524416;28;20036;-75
2022/11/26 09:50:37;;;;;;;6.22;2.35;;;;;;;;;;10499214;28;20040;-76
2022/11/26 09:55:43;;;;;;;5.55;2.38;;;;;;;;;;10497892;28;20044;-74
2022/11/26 10:00:46;;;;;;;5.18;2.30;;;;;;;;;;10522644;28;20028;-76
2022/11/26 10:06:00;;;;;;;4.53;2.28;;;;;;;;;;10525009;28;20101;-75
2022/11/26 10:11:03;;;;;;;;;;;;;;;;;;10525618;28;20048;-76
2022/11/26 10:16:10;;;;;;;8.88;3.08;;;;;;;;;;10522237;28;19931;-77
2022/11/26 10:21:23;;;;;;;5.95;2.60;;;;;;;;;;10515157;28;20492;-76
2022/11/26 10:26:45;;;;;;;4.93;2.35;;;;;;;;;;10517877;28;20036;-76
2022/11/26 10:31:53;;;;;;;7.05;2.38;;;;;;;;;;10514541;28;20037;-76
2022/11/26 10:36:57;;;;;;;6.22;2.75;;;;;;;;;;10517545;28;20027;-75
2022/11/26 10:42:03;;;;;;;9.00;3.00;;;;;;;;;;10515485;28;20036;-77
2022/11/26 10:47:20;;;;;;;9.38;3.05;;;;;;;;;;10515096;28;20044;-77
2022/11/26 10:52:27;;;;;;;7.50;2.63;;;;;;;;;;10514016;28;20071;-76
2022/11/26 10:57:30;;;;;;;9.00;3.60;;;;;;;;;;10506581;28;20113;-76
2022/11/26 11:02:35;;;;;;;17.38;4.15;;;;;;;;;;10520306;28;20118;-76
2022/11/26 11:07:43;;;;;;;15.88;4.35;;;;;;;;;;10515101;28;20050;-76
2022/11/26 11:13:02;;;;;;;8.57;4.22;;;;;;;;;;10510649;28;22054;-77
2022/11/26 11:18:06;;;;;;;13.32;4.78;;;;;;;;;;10516351;28;20075;-75
2022/11/26 11:23:24;;;;;;;10.10;4.32;;;;;;;;;;10514637;28;20044;-76
2022/11/26 11:28:48;;;;;;;9.60;4.35;;;;;;;;;;10525983;28;20051;-74
2022/11/26 11:34:12;;;;;;;9.80;4.50;;;;;;;;;;10498262;28;20059;-75
2022/11/26 11:39:31;;;;;;;12.88;4.03;;;;;;;;;;10515292;28;20503;-75
2022/11/26 11:44:38;;;;;;;10.65;3.80;;;;;;;;;;10511488;28;20180;-75
2022/11/26 11:49:57;;;;;;;9.40;3.80;;;;;;;;;;10523385;28;20631;-75
2022/11/26 11:55:06;;;;;;;11.05;3.97;;;;;;;;;;10517181;28;20460;-74
2022/11/26 12:00:12;;;;;;;8.63;3.70;;;;;;;;;;10510568;28;20047;-74
2022/11/26 12:05:29;;;;;;;11.45;3.88;;;;;;;;;;10525683;28;20473;-75
2022/11/26 12:10:38;;;;;;;11.60;3.95;;;;;;;;;;10487862;28;20048;-75
2022/11/26 12:15:50;;;;;;;8.55;3.63;;;;;;;;;;10512869;28;20339;-75
2022/11/26 12:20:55;;;;;;;10.13;3.67;;;;;;;;;;10508426;28;20450;-77
2022/11/26 12:26:13;;;;;;;6.78;3.45;;;;;;;;;;10505849;28;20185;-75
2022/11/26 12:31:19;;;;;;;13.55;3.92;;;;;;;;;;10513403;28;20056;-76
2022/11/26 12:36:34;;;;;;;8.68;4.00;;;;;;;;;;10512093;28;20144;-75
2022/11/26 12:41:49;;;;;;;10.98;3.95;;;;;;;;;;10501752;28;20048;-75
2022/11/26 12:47:03;;;;;;;13.55;4.32;;;;;;;;;;10507803;28;20044;-75
2022/11/26 12:52:16;;;;;;;8.07;3.10;;;;;;;;;;10510793;28;20577;-78
2022/11/26 12:57:28;;;;;;;11.55;4.05;;;;;;;;;;10527275;28;20351;-75
2022/11/26 13:02:34;;;;;;;13.95;4.30;;;;;;;;;;10511240;28;20478;-77
2022/11/26 13:07:48;;;;;;;11.65;4.10;;;;;;;;;;10526079;28;20044;-78
2022/11/26 13:13:01;;;;;;;9.80;3.90;;;;;;;;;;10525779;28;20078;-77
2022/11/26 13:18:11;;;;;;;11.57;3.92;;;;;;;;;;10516403;28;20418;-76
2022/11/26 13:23:26;;;;;;;11.20;3.83;;;;;;;;;;10519047;28;20044;-77
2022/11/26 13:28:41;;;;;;;11.85;4.38;;;;;;;;;;10520830;28;20131;-76
2022/11/26 13:34:02;;;;;;;10.93;3.90;;;;;;;;;;10517487;28;20067;-76
2022/11/26 13:39:15;;;;;;;12.57;3.95;;;;;;;;;;10498021;28;20147;-77
2022/11/26 13:44:32;;;;;;;10.10;3.90;;;;;;;;;;10524133;28;20040;-75
2022/11/26 13:49:39;;;;;;;9.35;3.92;;;;;;;;;;10510736;28;20028;-76
2022/11/26 13:54:45;;;;;;;12.23;4.40;;;;;;;;;;10521325;28;20036;-75
2022/11/26 14:00:00;;;;;;;10.30;4.20;;;;;;;;;;10522678;28;20540;-75
2022/11/26 14:05:04;;;;;;;8.82;3.45;;;;;;;;;;10525014;28;20279;-74
2022/11/26 14:10:06;;;;;;;;;;;;;;;;;;10513246;28;20047;-75
2022/11/26 14:15:34;;;;;;;11.27;3.28;;;;;;;;;;10512492;28;19963;-75
2022/11/26 14:20:55;;;;;;;13.35;4.18;;;;;;;;;;10517302;28;20127;-76
2022/11/26 14:25:57;;;;;;;15.95;4.95;;;;;;;;;;10502168;28;20044;-75
2022/11/26 14:31:13;;;;;;;14.73;5.50;;;;;;;;;;10521622;28;20439;-76
2022/11/26 14:36:20;;;;;;;9.80;3.92;;;;;;;;;;10496198;28;20036;-76
2022/11/26 14:41:24;;;;;;;12.95;5.45;;;;;;;;;;10521136;28;20044;-75
2022/11/26 14:46:31;;;;;;;13.27;4.25;;;;;;;;;;10514191;28;20032;-75
2022/11/26 14:51:38;;;;;;;6.90;3.20;;;;;;;;;;10519780;28;20044;-76
2022/11/26 14:56:41;;;;;;;10.57;4.65;;;;;;;;;;10507875;28;20123;-77
2022/11/26 15:02:00;;;;;;;12.23;4.25;;;;;;;;;;10521121;28;20528;-77
2022/11/26 15:07:04;;;;;;;15.18;4.65;;;;;;;;;;10516757;28;20473;-77
2022/11/26 15:12:12;;;;;;;10.85;4.15;;;;;;;;;;10513024;28;20053;-76
2022/11/26 15:17:22;;;;;;;8.82;3.13;;;;;;;;;;10511723;28;20035;-75
2022/11/26 15:22:38;;;;;;;10.80;3.70;;;;;;;;;;10515042;28;20040;-76
2022/11/26 15:27:57;;;;;;;10.93;3.47;;;;;;;;;;10510270;28;20158;-76
2022/11/26 15:33:02;;;;;;;8.32;2.90;;;;;;;;;;10512930;28;20459;-75
2022/11/26 15:38:18;;;;;;;11.57;4.03;;;;;;;;;;10526127;28;20458;-74
2022/11/26 15:43:23;;;;;;;11.82;4.03;;;;;;;;;;10497083;28;20083;-76
2022/11/26 15:48:39;;;;;;;7.25;3.28;;;;;;;;;;10522644;28;20464;-75
2022/11/26 15:53:57;;;;;;;16.05;4.30;;;;;;;;;;10517987;28;20119;-77
2022/11/26 15:59:02;;;;;;;12.82;5.25;;;;;;;;;;10517041;28;20071;-75
2022/11/26 16:04:06;;;;;;;13.52;4.53;;;;;;;;;;10510669;28;20036;-75
2022/11/26 16:09:24;;;;;;;14.23;5.07;;;;;;;;;;10510189;28;20043;-75
2022/11/26 16:14:34;;;;;;;12.38;4.20;;;;;;;;;;10507172;28;20509;-76
2022/11/26 16:19:46;;;;;;;30.70;9.32;;;;;;;;;;10508180;28;20040;-76
2022/11/26 16:25:00;;;;;;;16.58;5.10;;;;;;;;;;10508625;28;20409;-75
2022/11/26 16:30:06;;;;;;;20.20;6.30;;;;;;;;;;10514431;28;20043;-75
2022/11/26 16:35:10;;;;;;;15.65;5.35;;;;;;;;;;10525410;28;20597;-75
2022/11/26 16:40:34;;;;;;;18.85;5.68;;;;;;;;;;10519656;28;20521;-75
2022/11/26 16:45:36;;;;;;;18.80;5.15;;;;;;;;;;10522705;28;20043;-75
2022/11/26 16:50:41;;;;;;;16.33;5.05;;;;;;;;;;10523959;28;20417;-75
2022/11/26 16:55:43;;;;;;;17.35;5.03;;;;;;;;;;10519687;28;20048;-76
2022/11/26 17:00:46;;;;;;;25.77;9.13;;;;;;;;;;10526654;28;20126;-76
2022/11/26 17:05:51;;;;;;;17.17;5.82;;;;;;;;;;10524379;28;20040;-75
2022/11/26 17:10:53;;;;;;;13.50;4.72;;;;;;;;;;10514966;28;20040;-75
2022/11/26 17:15:56;;;;;;;19.08;6.25;;;;;;;;;;10510287;28;20040;-75
2022/11/26 17:21:00;;;;;;;19.50;6.53;;;;;;;;;;10522685;28;20058;-74
2022/11/26 17:26:05;;;;;;;18.95;6.95;;;;;;;;;;10506049;28;20039;-74
2022/11/26 17:31:07;;;;;;;19.27;6.50;;;;;;;;;;10517631;28;20052;-75
2022/11/26 17:36:17;;;;;;;19.23;6.68;;;;;;;;;;10524471;28;20035;-74
2022/11/26 17:41:20;;;;;;;17.05;7.07;;;;;;;;;;10521737;28;20048;-75
2022/11/26 17:46:23;;;;;;;22.57;7.00;;;;;;;;;;10525828;28;20047;-77
2022/11/26 17:51:27;;;;;;;25.17;6.45;;;;;;;;;;10526677;28;20059;-74
2022/11/26 17:56:32;;;;;;;24.38;7.22;;;;;;;;;;10520667;28;20043;-74
2022/11/26 18:01:35;;;;;;;26.27;9.35;;;;;;;;;;10517964;28;20052;-75
2022/11/26 18:06:46;;;;;;;27.55;9.63;;;;;;;;;;10514140;28;20482;-74
2022/11/26 18:11:50;;;;;;;27.08;9.48;;;;;;;;;;10517018;28;20044;-75
2022/11/26 18:16:53;;;;;;;28.00;9.77;;;;;;;;;;10517632;28;20097;-75
2022/11/26 18:21:57;;;;;;;35.75;12.63;;;;;;;;;;10500752;28;20040;-75
2022/11/26 18:27:00;;;;;;;70.38;23.35;;;;;;;;;;10521828;28;20064;-75
2022/11/26 18:32:02;;;;;;;24.92;9.38;;;;;;;;;;10520435;28;20125;-75
2022/11/26 18:37:06;;;;;;;21.90;7.82;;;;;;;;;;10517262;28;20037;-75
2022/11/26 18:42:09;;;;;;;24.10;7.63;;;;;;;;;;10520307;28;20403;-75
2022/11/26 18:47:32;;;;;;;28.73;9.40;;;;;;;;;;10517447;28;20040;-75
2022/11/26 18:52:36;;;;;;;27.33;8.53;;;;;;;;;;10517075;28;20042;-75
2022/11/26 18:57:39;;;;;;;18.00;7.65;;;;;;;;;;10496162;28;20041;-75
2022/11/26 19:02:42;;;;;;;22.42;7.60;;;;;;;;;;10514563;28;20067;-75
2022/11/26 19:07:47;;;;;;;15.73;5.68;;;;;;;;;;10516594;28;20093;-74
2022/11/26 19:12:49;;;;;;;28.27;11.05;;;;;;;;;;10512924;28;20120;-76
2022/11/26 19:17:52;;;;;;;17.75;7.28;;;;;;;;;;10513452;28;20041;-76
2022/11/26 19:22:56;;;;;;;18.55;6.10;;;;;;;;;;10513116;28;20036;-76
2022/11/26 19:27:59;;;;;;;18.85;6.22;;;;;;;;;;10515960;28;20051;-75
2022/11/26 19:33:07;;;;;;;19.63;7.50;;;;;;;;;;10516159;28;20179;-75
2022/11/26 19:38:14;;;;;;;22.00;8.38;;;;;;;;;;10512264;28;20207;-76
2022/11/26 19:43:21;;;;;;;27.38;9.07;;;;;;;;;;10516879;28;20051;-75
2022/11/26 19:48:24;;;;;;;18.48;7.57;;;;;;;;;;10515014;28;20044;-74
2022/11/26 19:53:28;;;;;;;24.55;8.68;;;;;;;;;;10497043;28;20052;-75
2022/11/26 19:58:31;;;;;;;24.38;9.65;;;;;;;;;;10515388;28;20046;-75
2022/11/26 20:03:35;;;;;;;20.37;8.27;;;;;;;;;;10511623;28;20044;-75
2022/11/26 20:08:40;;;;;;;20.02;8.45;;;;;;;;;;10530817;28;20043;-75
2022/11/26 20:13:43;;;;;;;18.90;7.20;;;;;;;;;;10533049;28;20050;-73
2022/11/26 20:18:47;;;;;;;21.07;7.57;;;;;;;;;;10526162;28;20086;-74
2022/11/26 20:23:51;;;;;;;19.77;6.90;;;;;;;;;;10532680;28;20298;-74
2022/11/26 20:28:55;;;;;;;23.85;9.10;;;;;;;;;;10535442;28;20512;-75
2022/11/26 20:33:57;;;;;;;21.43;7.60;;;;;;;;;;10528100;28;20040;-75
2022/11/26 20:39:02;;;;;;;20.17;7.83;;;;;;;;;;10524487;28;20111;-75
2022/11/26 20:44:04;;;;;;;29.67;10.77;;;;;;;;;;10520511;28;20345;-76
2022/11/26 20:49:09;;;;;;;26.80;9.10;;;;;;;;;;10524397;28;20036;-76
2022/11/26 20:54:15;;;;;;;20.40;7.40;;;;;;;;;;10524004;28;20202;-76
2022/11/26 20:59:18;;;;;;;24.57;8.00;;;;;;;;;;10519956;28;20497;-76
2022/11/26 21:04:21;;;;;;;12.43;5.23;;;;;;;;;;10517651;28;20503;-78
2022/11/26 21:09:26;;;;;;;4.60;2.33;;;;;;;;;;10518810;28;20514;-75
2022/11/26 21:14:29;;;;;;;9.75;3.50;;;;;;;;;;10528673;28;20132;-76
2022/11/26 21:19:32;;;;;;;17.67;6.53;;;;;;;;;;10519433;28;20083;-74
2022/11/26 21:24:37;;;;;;;24.10;7.00;;;;;;;;;;10527543;28;20681;-74
2022/11/26 21:29:39;;;;;;;39.23;9.27;;;;;;;;;;10527317;28;20090;-74
2022/11/26 21:34:43;;;;;;;57.37;13.63;;;;;;;;;;10524101;28;20032;-74
2022/11/26 21:39:47;;;;;;;31.83;11.17;;;;;;;;;;10522520;28;20040;-75
2022/11/26 21:44:50;;;;;;;;;;;;;;;;;;10520347;28;20044;-75
2022/11/26 21:49:52;;;;;;;33.63;11.40;;;;;;;;;;10521770;28;19927;-75
2022/11/26 21:54:56;;;;;;;26.10;9.20;;;;;;;;;;10513343;28;20054;-74
2022/11/26 22:00:06;;;;;;;21.93;7.87;;;;;;;;;;10520939;28;20116;-76
2022/11/26 22:05:11;;;;;;;16.17;6.78;;;;;;;;;;10517422;28;20048;-75
2022/11/26 22:10:14;;;;;;;;;;;;;;;;;;10499885;28;20043;-75
2022/11/26 22:15:18;;;;;;;10.17;4.03;;;;;;;;;;10517532;28;19931;-75
2022/11/26 22:20:21;;;;;;;23.40;7.55;;;;;;;;;;10521299;28;20040;-75
2022/11/26 22:25:23;;;;;;;14.43;4.93;;;;;;;;;;10516145;28;20040;-75
2022/11/26 22:30:27;;;;;;;18.03;6.30;;;;;;;;;;10515816;28;20090;-74
2022/11/26 22:35:31;;;;;;;23.77;7.77;;;;;;;;;;10508224;28;20118;-75
2022/11/26 22:40:34;;;;;;;8.88;4.10;;;;;;;;;;10511821;28;20060;-74
2022/11/26 22:45:38;;;;;;;52.03;11.83;;;;;;;;;;10508726;28;20047;-75
2022/11/26 22:50:41;;;;;;;27.90;8.38;;;;;;;;;;10514722;28;20039;-75
2022/11/26 22:55:48;;;;;;;26.77;8.13;;;;;;;;;;10517245;28;21008;-76
2022/11/26 23:00:53;;;;;;;16.77;5.93;;;;;;;;;;10494048;28;20035;-74
2022/11/26 23:05:56;;;;;;;15.10;5.67;;;;;;;;;;10519232;28;20036;-74
2022/11/26 23:10:59;;;;;;;10.60;3.90;;;;;;;;;;10512057;28;20036;-75
2022/11/26 23:16:08;;;;;;;9.13;4.37;;;;;;;;;;10521408;28;20063;-76
2022/11/26 23:21:12;;;;;;;14.27;3.93;;;;;;;;;;10519615;28;20036;-74
2022/11/26 23:26:16;;;;;;;41.88;11.55;;;;;;;;;;10517616;28;20473;-74
2022/11/26 23:31:38;;;;;;;30.30;8.43;;;;;;;;;;10508757;28;20036;-75
2022/11/26 23:36:41;;;;;;;14.07;5.47;;;;;;;;;;10491991;28;20040;-75
2022/11/26 23:41:43;;;;;;;17.67;6.20;;;;;;;;;;10509318;28;20037;-76
2022/11/26 23:46:48;;;;;;;40.17;10.53;;;;;;;;;;10511599;28;20036;-75
2022/11/26 23:51:50;;;;;;;30.17;7.13;;;;;;;;;;10512809;28;20489;-76
2022/11/26 23:56:53;;;;;;;20.90;5.47;;;;;;;;;;10522045;28;20040;-75
